createdAt,value
2022-10-23T00:00:43.788Z,0.00
2022-10-23T00:01:43.747Z,0.00
2022-10-23T00:02:44.292Z,0.00
2022-10-23T00:03:43.754Z,0.00
2022-10-23T00:04:43.758Z,0.00
2022-10-23T00:05:43.775Z,0.00
2022-10-23T00:06:43.781Z,0.00
2022-10-23T00:07:43.781Z,0.00
2022-10-23T00:08:50.518Z,0.00
2022-10-23T00:09:43.803Z,0.00
2022-10-23T00:10:43.808Z,0.00
2022-10-23T00:11:43.811Z,0.00
2022-10-23T00:12:44.102Z,0.00
2022-10-23T00:13:43.825Z,0.00
2022-10-23T00:14:43.851Z,0.00
2022-10-23T00:15:43.893Z,0.00
2022-10-23T00:16:43.844Z,0.00
2022-10-23T00:17:44.023Z,0.00
2022-10-23T00:18:43.858Z,0.00
2022-10-23T00:19:43.867Z,0.00
2022-10-23T00:20:43.880Z,0.00
2022-10-23T00:21:43.887Z,0.00
2022-10-23T00:22:43.889Z,0.00
2022-10-23T00:23:43.895Z,0.00
2022-10-23T00:24:43.901Z,0.00
2022-10-23T00:25:43.909Z,0.00
2022-10-23T00:26:43.926Z,0.00
2022-10-23T00:27:44.298Z,0.00
2022-10-23T00:28:43.934Z,0.00
2022-10-23T00:29:43.938Z,0.00
2022-10-23T00:30:43.966Z,0.00
2022-10-23T00:31:43.951Z,0.00
2022-10-23T00:32:43.969Z,0.00
2022-10-23T00:33:43.973Z,0.00
2022-10-23T00:34:43.981Z,0.00
2022-10-23T00:35:43.986Z,0.00
2022-10-23T00:36:43.996Z,0.00
2022-10-23T00:37:44.359Z,0.00
2022-10-23T00:38:44.011Z,0.00
2022-10-23T00:39:44.015Z,0.00
2022-10-23T00:40:44.106Z,0.00
2022-10-23T00:41:44.029Z,0.00
2022-10-23T00:42:44.339Z,0.00
2022-10-23T00:43:44.045Z,0.00
2022-10-23T00:44:44.043Z,0.00
2022-10-23T00:45:44.050Z,0.00
2022-10-23T00:46:44.084Z,0.00
2022-10-23T00:47:44.072Z,0.00
2022-10-23T00:48:44.079Z,0.00
2022-10-23T00:49:44.093Z,0.00
2022-10-23T00:50:44.084Z,0.00
2022-10-23T00:51:44.093Z,0.00
2022-10-23T00:52:44.483Z,0.00
2022-10-23T00:53:44.119Z,0.00
2022-10-23T00:54:44.112Z,0.00
2022-10-23T00:55:44.131Z,0.00
2022-10-23T00:56:44.129Z,0.00
2022-10-23T00:57:44.135Z,0.00
2022-10-23T00:58:44.143Z,0.00
2022-10-23T00:59:44.149Z,0.00
2022-10-23T01:00:44.166Z,0.00
2022-10-23T01:01:44.339Z,0.00
2022-10-23T01:02:44.739Z,0.00
2022-10-23T01:03:44.182Z,0.00
2022-10-23T01:04:44.192Z,0.00
2022-10-23T01:05:44.216Z,0.00
2022-10-23T01:06:44.199Z,0.00
2022-10-23T01:07:44.508Z,0.00
2022-10-23T01:08:44.213Z,0.00
2022-10-23T01:09:44.224Z,0.00
2022-10-23T01:10:44.227Z,0.00
2022-10-23T01:11:44.240Z,0.00
2022-10-23T01:12:44.247Z,0.00
2022-10-23T01:13:44.252Z,0.00
2022-10-23T01:14:44.262Z,0.00
2022-10-23T01:15:44.261Z,0.00
2022-10-23T01:16:44.269Z,0.00
2022-10-23T01:17:44.748Z,0.00
2022-10-23T01:18:44.302Z,0.00
2022-10-23T01:19:44.289Z,0.00
2022-10-23T01:20:44.296Z,0.00
2022-10-23T01:21:44.303Z,0.00
2022-10-23T01:22:44.681Z,0.00
2022-10-23T01:23:44.324Z,0.00
2022-10-23T01:24:44.324Z,0.00
2022-10-23T01:25:44.339Z,0.00
2022-10-23T01:26:44.343Z,0.00
2022-10-23T01:27:44.353Z,0.00
2022-10-23T01:28:44.362Z,0.00
2022-10-23T01:29:44.359Z,0.00
2022-10-23T01:30:44.367Z,0.00
2022-10-23T01:31:44.386Z,0.00
2022-10-23T01:32:44.647Z,0.00
2022-10-23T01:33:44.387Z,0.00
2022-10-23T01:34:44.422Z,0.00
2022-10-23T01:35:44.407Z,0.00
2022-10-23T01:36:44.409Z,0.00
2022-10-23T01:39:17.057Z,0.00
2022-10-23T01:40:17.070Z,0.00
2022-10-23T01:41:17.075Z,0.00
2022-10-23T01:42:17.078Z,0.00
2022-10-23T01:43:17.083Z,0.00
2022-10-23T01:44:17.099Z,0.00
2022-10-23T01:45:17.097Z,0.00
2022-10-23T01:46:17.107Z,0.00
2022-10-23T01:47:17.165Z,0.00
2022-10-23T01:48:20.753Z,0.00
2022-10-23T02:16:31.227Z,0.00
2022-10-23T02:17:31.358Z,0.00
2022-10-23T02:18:31.212Z,0.00
2022-10-23T02:19:31.220Z,0.00
2022-10-23T02:20:31.274Z,0.00
2022-10-23T02:21:31.233Z,0.00
2022-10-23T02:22:31.238Z,0.00
2022-10-23T02:23:31.246Z,0.00
2022-10-23T02:24:31.260Z,0.00
2022-10-23T02:25:31.268Z,0.00
2022-10-23T02:26:31.267Z,0.00
2022-10-23T02:27:31.283Z,0.00
2022-10-23T02:28:31.281Z,0.00
2022-10-23T02:29:31.295Z,0.00
2022-10-23T02:30:31.296Z,0.00
2022-10-23T02:31:31.300Z,0.00
2022-10-23T02:32:31.337Z,0.00
2022-10-23T02:33:31.316Z,0.00
2022-10-23T02:34:31.331Z,0.00
2022-10-23T02:35:31.335Z,0.00
2022-10-23T02:36:31.345Z,0.00
2022-10-23T02:37:31.352Z,0.00
2022-10-23T02:38:31.358Z,0.00
2022-10-23T02:39:31.365Z,0.00
2022-10-23T02:40:31.364Z,0.00
2022-10-23T02:41:31.377Z,0.00
2022-10-23T02:42:31.379Z,0.00
2022-10-23T02:43:31.392Z,0.00
2022-10-23T02:44:31.390Z,0.00
2022-10-23T02:45:31.448Z,0.00
2022-10-23T02:46:31.404Z,0.00
2022-10-23T02:47:31.413Z,0.00
2022-10-23T02:48:31.448Z,0.00
2022-10-23T02:49:31.427Z,0.00
2022-10-23T02:50:31.431Z,0.00
2022-10-23T02:51:31.447Z,0.00
2022-10-23T02:52:31.449Z,0.00
2022-10-23T02:53:31.461Z,0.00
2022-10-23T02:54:31.467Z,0.00
2022-10-23T02:55:31.474Z,0.00
2022-10-23T02:56:33.453Z,0.00
2022-10-23T02:57:31.490Z,0.00
2022-10-23T02:58:31.493Z,0.00
2022-10-23T02:59:31.501Z,0.00
2022-10-23T03:00:31.506Z,0.00
2022-10-23T03:01:31.693Z,0.00
2022-10-23T03:03:31.530Z,0.00
2022-10-23T03:04:31.559Z,0.00
2022-10-23T03:05:31.542Z,0.00
2022-10-23T03:06:31.543Z,0.00
2022-10-23T03:07:31.550Z,0.00
2022-10-23T03:08:31.565Z,0.00
2022-10-23T03:09:31.563Z,0.00
2022-10-23T03:10:31.578Z,0.00
2022-10-23T03:11:31.575Z,0.00
2022-10-23T03:12:31.590Z,0.00
2022-10-23T03:13:31.596Z,0.00
2022-10-23T03:14:31.597Z,0.00
2022-10-23T03:15:31.601Z,0.00
2022-10-23T03:16:31.609Z,0.00
2022-10-23T03:17:31.617Z,0.00
2022-10-23T03:18:31.622Z,0.00
2022-10-23T03:19:31.631Z,0.00
2022-10-23T03:20:31.654Z,0.00
2022-10-23T03:21:31.643Z,0.00
2022-10-23T03:22:31.647Z,0.00
2022-10-23T03:23:31.662Z,0.00
2022-10-23T03:24:31.662Z,0.00
2022-10-23T03:25:31.673Z,0.00
2022-10-23T03:26:31.673Z,0.00
2022-10-23T03:27:31.684Z,0.00
2022-10-23T03:28:31.687Z,0.00
2022-10-23T03:29:31.703Z,0.00
2022-10-23T03:30:31.708Z,0.00
2022-10-23T03:31:31.715Z,0.00
2022-10-23T03:32:31.721Z,0.00
2022-10-23T03:33:31.723Z,0.00
2022-10-23T03:34:31.733Z,0.00
2022-10-23T03:35:31.742Z,0.00
2022-10-23T03:36:31.763Z,0.00
2022-10-23T03:37:31.747Z,0.00
2022-10-23T03:38:31.753Z,0.00
2022-10-23T03:39:31.760Z,0.00
2022-10-23T03:40:31.769Z,0.00
2022-10-23T03:41:31.771Z,0.00
2022-10-23T03:42:31.786Z,0.00
2022-10-23T03:43:31.785Z,0.00
2022-10-23T03:44:31.801Z,0.00
2022-10-23T03:45:31.805Z,0.00
2022-10-23T03:46:31.813Z,0.00
2022-10-23T03:47:31.818Z,0.00
2022-10-23T03:48:31.818Z,0.00
2022-10-23T03:49:31.831Z,0.00
2022-10-23T03:50:31.832Z,0.00
2022-10-23T03:51:31.842Z,0.00
2022-10-23T03:52:31.865Z,0.00
2022-10-23T03:53:31.860Z,0.00
2022-10-23T03:54:31.863Z,0.00
2022-10-23T03:55:31.873Z,0.00
2022-10-23T03:56:31.867Z,0.00
2022-10-23T03:57:31.878Z,0.00
2022-10-23T03:58:31.888Z,0.00
2022-10-23T03:59:31.888Z,0.00
2022-10-23T04:00:31.970Z,0.00
2022-10-23T04:01:31.969Z,0.00
2022-10-23T04:02:31.952Z,0.00
2022-10-23T04:03:31.913Z,0.00
2022-10-23T04:04:31.921Z,0.00
2022-10-23T04:05:31.934Z,0.00
2022-10-23T04:06:31.937Z,0.00
2022-10-23T04:07:31.938Z,0.00
2022-10-23T04:08:31.973Z,0.00
2022-10-23T04:09:31.951Z,0.00
2022-10-23T04:10:31.963Z,0.00
2022-10-23T04:11:31.971Z,0.00
2022-10-23T04:12:31.975Z,0.00
2022-10-23T04:13:31.977Z,0.00
2022-10-23T04:14:31.989Z,0.00
2022-10-23T04:15:31.996Z,0.00
2022-10-23T04:16:32.002Z,0.00
2022-10-23T04:17:32.004Z,0.00
2022-10-23T04:18:32.005Z,0.00
2022-10-23T04:19:32.016Z,0.00
2022-10-23T04:20:32.019Z,0.00
2022-10-23T04:21:32.034Z,0.00
2022-10-23T04:22:32.037Z,0.00
2022-10-23T04:23:32.048Z,0.00
2022-10-23T04:24:32.072Z,0.00
2022-10-23T04:25:32.059Z,0.00
2022-10-23T04:26:32.065Z,0.00
2022-10-23T04:27:32.074Z,0.00
2022-10-23T04:29:32.114Z,0.00
2022-10-23T04:30:48.665Z,0.00
2022-10-23T04:31:32.120Z,0.00
2022-10-23T04:32:32.127Z,0.00
2022-10-23T04:38:32.156Z,0.00
2022-10-23T04:39:32.140Z,0.00
2022-10-23T04:40:32.174Z,0.00
2022-10-23T04:41:32.151Z,0.00
2022-10-23T04:42:32.179Z,0.00
2022-10-23T04:43:32.165Z,0.00
2022-10-23T04:44:32.173Z,0.00
2022-10-23T04:45:32.188Z,0.00
2022-10-23T04:46:32.183Z,0.00
2022-10-23T04:47:32.197Z,0.00
2022-10-23T04:48:32.197Z,0.00
2022-10-23T04:49:32.202Z,0.00
2022-10-23T04:50:32.210Z,0.00
2022-10-23T04:51:32.214Z,0.00
2022-10-23T04:52:32.229Z,0.00
2022-10-23T04:53:32.227Z,0.00
2022-10-23T04:54:32.235Z,0.00
2022-10-23T04:55:32.255Z,0.00
2022-10-23T04:56:32.275Z,0.00
2022-10-23T04:57:32.267Z,0.00
2022-10-23T04:58:32.258Z,0.00
2022-10-23T04:59:32.275Z,0.00
2022-10-23T05:00:32.378Z,0.00
2022-10-23T05:01:32.372Z,0.00
2022-10-23T05:02:32.284Z,0.00
2022-10-23T05:03:32.298Z,0.00
2022-10-23T05:04:32.297Z,0.00
2022-10-23T05:05:32.304Z,0.00
2022-10-23T05:06:32.316Z,0.00
2022-10-23T05:07:32.317Z,0.00
2022-10-23T05:08:32.329Z,0.00
2022-10-23T05:09:32.338Z,0.00
2022-10-23T05:10:32.342Z,0.00
2022-10-23T05:11:32.349Z,0.00
2022-10-23T05:12:32.376Z,0.00
2022-10-23T05:13:32.360Z,0.00
2022-10-23T05:14:32.367Z,0.00
2022-10-23T05:15:32.471Z,0.00
2022-10-23T05:16:32.380Z,0.00
2022-10-23T05:17:32.386Z,0.00
2022-10-23T05:18:32.389Z,0.00
2022-10-23T05:19:32.396Z,4.00
2022-10-23T05:20:32.404Z,4.00
2022-10-23T05:21:32.402Z,0.00
2022-10-23T05:22:32.411Z,0.00
2022-10-23T05:23:32.421Z,4.00
2022-10-23T05:24:32.430Z,4.00
2022-10-23T05:25:32.425Z,4.00
2022-10-23T05:26:32.440Z,4.00
2022-10-23T05:27:32.446Z,4.00
2022-10-23T05:28:32.475Z,8.00
2022-10-23T05:29:32.453Z,8.00
2022-10-23T05:30:32.457Z,8.00
2022-10-23T05:31:32.472Z,12.00
2022-10-23T05:32:32.469Z,16.00
2022-10-23T05:33:32.486Z,16.00
2022-10-23T05:34:32.488Z,20.00
2022-10-23T05:35:32.489Z,24.00
2022-10-23T05:36:32.500Z,24.00
2022-10-23T05:37:32.500Z,28.00
2022-10-23T05:38:32.511Z,32.00
2022-10-23T05:39:32.513Z,36.00
2022-10-23T05:40:32.560Z,44.00
2022-10-23T05:41:32.533Z,48.00
2022-10-23T05:42:32.527Z,56.00
2022-10-23T05:43:32.543Z,64.00
2022-10-23T05:44:32.570Z,68.00
2022-10-23T05:45:32.548Z,76.00
2022-10-23T05:46:32.560Z,88.00
2022-10-23T05:47:32.557Z,100.00
2022-10-23T05:48:35.767Z,112.00
2022-10-23T05:49:32.570Z,120.00
2022-10-23T05:50:32.577Z,128.00
2022-10-23T05:51:32.590Z,140.00
2022-10-23T05:52:32.590Z,152.00
2022-10-23T05:53:32.601Z,164.00
2022-10-23T05:54:32.609Z,176.00
2022-10-23T05:55:32.614Z,188.00
2022-10-23T05:56:32.615Z,204.00
2022-10-23T05:57:32.639Z,224.00
2022-10-23T05:58:32.626Z,240.00
2022-10-23T05:59:32.632Z,260.00
2022-10-23T06:00:32.667Z,280.00
2022-10-23T06:01:32.842Z,304.00
2022-10-23T06:02:32.712Z,328.00
2022-10-23T06:03:32.657Z,360.00
2022-10-23T06:04:32.663Z,388.00
2022-10-23T06:05:32.742Z,424.00
2022-10-23T06:06:32.684Z,460.00
2022-10-23T06:07:35.131Z,500.00
2022-10-23T06:08:32.694Z,540.00
2022-10-23T06:09:32.700Z,584.00
2022-10-23T06:10:32.698Z,624.00
2022-10-23T06:11:32.707Z,668.00
2022-10-23T06:12:32.718Z,708.00
2022-10-23T06:13:32.726Z,748.00
2022-10-23T06:14:32.723Z,792.00
2022-10-23T06:15:32.737Z,832.00
2022-10-23T06:16:32.757Z,880.00
2022-10-23T06:17:32.750Z,936.00
2022-10-23T06:18:32.746Z,984.00
2022-10-23T06:19:32.763Z,1028.00
2022-10-23T06:20:32.766Z,1064.00
2022-10-23T06:21:32.766Z,1092.00
2022-10-23T06:22:32.775Z,1116.00
2022-10-23T06:23:32.776Z,1132.00
2022-10-23T06:24:32.785Z,1148.00
2022-10-23T06:25:32.800Z,1168.00
2022-10-23T06:26:32.802Z,1188.00
2022-10-23T06:27:32.811Z,1204.00
2022-10-23T06:28:32.817Z,1232.00
2022-10-23T06:29:32.823Z,1268.00
2022-10-23T06:30:32.875Z,1308.00
2022-10-23T06:31:32.834Z,1364.00
2022-10-23T06:32:32.864Z,1428.00
2022-10-23T06:33:32.848Z,1508.00
2022-10-23T06:34:32.852Z,1588.00
2022-10-23T06:35:32.852Z,1672.00
2022-10-23T06:36:32.878Z,1752.00
2022-10-23T06:37:32.873Z,1836.00
2022-10-23T06:38:32.878Z,1912.00
2022-10-23T06:39:32.882Z,1988.00
2022-10-23T06:40:32.891Z,2064.00
2022-10-23T06:41:32.896Z,2136.00
2022-10-23T06:42:32.895Z,2208.00
2022-10-23T06:43:32.906Z,2296.00
2022-10-23T06:44:32.907Z,2404.00
2022-10-23T06:45:32.913Z,2512.00
2022-10-23T06:46:32.919Z,2612.00
2022-10-23T06:47:32.926Z,2716.00
2022-10-23T06:48:32.961Z,2804.00
2022-10-23T06:49:32.937Z,2892.00
2022-10-23T06:50:32.943Z,2996.00
2022-10-23T06:51:32.950Z,3088.00
2022-10-23T06:52:46.664Z,3180.00
2022-10-23T06:53:32.969Z,3300.00
2022-10-23T06:54:32.975Z,3420.00
2022-10-23T06:55:33.031Z,3520.00
2022-10-23T06:56:32.981Z,3620.00
2022-10-23T06:57:32.987Z,3672.00
2022-10-23T06:58:32.991Z,3692.00
2022-10-23T06:59:33.007Z,3724.00
2022-10-23T07:00:33.029Z,3796.00
2022-10-23T07:01:33.232Z,3884.00
2022-10-23T07:02:33.023Z,4008.00
2022-10-23T07:03:33.024Z,4164.00
2022-10-23T07:04:33.050Z,4264.00
2022-10-23T07:05:33.037Z,4340.00
2022-10-23T07:06:33.049Z,4440.00
2022-10-23T07:07:33.048Z,4540.00
2022-10-23T07:08:33.058Z,4616.00
2022-10-23T07:09:33.064Z,4648.00
2022-10-23T07:10:33.069Z,4740.00
2022-10-23T07:11:33.083Z,4808.00
2022-10-23T07:12:33.089Z,5068.00
2022-10-23T07:13:33.096Z,5200.00
2022-10-23T07:14:33.093Z,5284.00
2022-10-23T07:15:33.106Z,5352.00
2022-10-23T07:16:33.114Z,5300.00
2022-10-23T07:17:33.113Z,5260.00
2022-10-23T07:19:33.127Z,5352.00
2022-10-23T07:20:33.256Z,5324.00
2022-10-23T07:21:33.140Z,5328.00
2022-10-23T07:22:33.145Z,5364.00
2022-10-23T07:23:33.154Z,5412.00
2022-10-23T07:24:33.160Z,5572.00
2022-10-23T07:25:33.168Z,5588.00
2022-10-23T07:26:33.179Z,5624.00
2022-10-23T07:27:33.180Z,5884.00
2022-10-23T07:28:33.192Z,5936.00
2022-10-23T07:29:33.193Z,6220.00
2022-10-23T07:30:33.199Z,6380.00
2022-10-23T07:31:33.213Z,6532.00
2022-10-23T07:32:33.223Z,6712.00
2022-10-23T07:33:33.226Z,6976.00
2022-10-23T07:34:33.234Z,7088.00
2022-10-23T07:35:36.901Z,7448.00
2022-10-23T07:36:33.269Z,7412.00
2022-10-23T07:37:33.247Z,7472.00
2022-10-23T07:38:33.262Z,7156.00
2022-10-23T07:39:33.258Z,6920.00
2022-10-23T07:40:33.276Z,6992.00
2022-10-23T07:41:33.281Z,6988.00
2022-10-23T07:42:33.289Z,7064.00
2022-10-23T07:43:33.304Z,6976.00
2022-10-23T07:44:33.294Z,6924.00
2022-10-23T07:45:33.311Z,6920.00
2022-10-23T07:46:33.315Z,6860.00
2022-10-23T07:47:33.316Z,6864.00
2022-10-23T07:48:33.333Z,6676.00
2022-10-23T07:49:33.330Z,6580.00
2022-10-23T07:50:33.345Z,6432.00
2022-10-23T07:51:33.351Z,6392.00
2022-10-23T07:52:35.855Z,6388.00
2022-10-23T07:53:33.359Z,6424.00
2022-10-23T07:54:33.366Z,6500.00
2022-10-23T07:56:25.938Z,6784.00
2022-10-23T07:57:25.952Z,6952.00
2022-10-23T07:58:25.951Z,7132.00
2022-10-23T07:59:25.966Z,7304.00
2022-10-23T08:00:25.970Z,7572.00
2022-10-23T08:01:26.035Z,7820.00
2022-10-23T08:02:26.045Z,8144.00
2022-10-23T08:03:25.984Z,8464.00
2022-10-23T08:04:25.994Z,8728.00
2022-10-23T08:05:26.004Z,8920.00
2022-10-23T08:06:26.009Z,8816.00
2022-10-23T08:07:26.015Z,8820.00
2022-10-23T08:08:26.062Z,9012.00
2022-10-23T08:09:26.036Z,9712.00
2022-10-23T08:10:26.038Z,10236.00
2022-10-23T08:11:26.044Z,10756.00
2022-10-23T08:12:26.059Z,11068.00
2022-10-23T08:13:26.059Z,10792.00
2022-10-23T08:14:26.071Z,10552.00
2022-10-23T08:15:26.076Z,10264.00
2022-10-23T08:16:26.089Z,10168.00
2022-10-23T08:17:28.210Z,10152.00
2022-10-23T08:18:26.096Z,10212.00
2022-10-23T08:19:26.106Z,10344.00
2022-10-23T08:20:26.111Z,10372.00
2022-10-23T08:21:26.120Z,10540.00
2022-10-23T08:22:26.132Z,10576.00
2022-10-23T08:23:26.141Z,10824.00
2022-10-23T08:24:26.166Z,10840.00
2022-10-23T08:25:26.242Z,10776.00
2022-10-23T08:26:26.161Z,10764.00
2022-10-23T08:27:26.177Z,10620.00
2022-10-23T08:28:26.182Z,10712.00
2022-10-23T08:29:26.185Z,11080.00
2022-10-23T08:30:26.191Z,11580.00
2022-10-23T08:31:26.207Z,11976.00
2022-10-23T08:32:26.206Z,12228.00
2022-10-23T08:33:26.223Z,12848.00
2022-10-23T08:34:26.222Z,13564.00
2022-10-23T08:35:26.235Z,14400.00
2022-10-23T08:36:26.246Z,14448.00
2022-10-23T08:37:26.249Z,14840.00
2022-10-23T08:38:26.264Z,14968.00
2022-10-23T08:39:26.263Z,15744.00
2022-10-23T08:40:26.292Z,15904.00
2022-10-23T08:41:26.279Z,16416.00
2022-10-23T08:43:11.462Z,17536.00
2022-10-23T08:44:08.848Z,17120.00
2022-10-23T08:45:08.857Z,16352.00
2022-10-23T08:46:09.496Z,15840.00
2022-10-23T08:47:08.874Z,16160.00
2022-10-23T08:48:08.881Z,16608.00
2022-10-23T08:49:08.893Z,16832.00
2022-10-23T08:50:08.909Z,16608.00
2022-10-23T08:51:08.901Z,15648.00
2022-10-23T08:52:11.697Z,16448.00
2022-10-23T08:53:08.928Z,16992.00
2022-10-23T09:00:16.465Z,19040.00
2022-10-23T09:01:16.605Z,20288.00
2022-10-23T09:02:16.552Z,20800.00
2022-10-23T09:03:16.475Z,22816.00
2022-10-23T09:04:16.482Z,24928.00
2022-10-23T09:05:16.494Z,26176.00
2022-10-23T09:06:16.495Z,25824.00
2022-10-23T09:07:16.517Z,25312.00
2022-10-23T09:08:16.518Z,27744.00
2022-10-23T09:09:16.534Z,29504.00
2022-10-23T09:10:16.538Z,30048.00
2022-10-23T09:11:16.562Z,32640.00
2022-10-23T09:12:16.558Z,33664.00
2022-10-23T09:13:16.569Z,34400.00
2022-10-23T09:14:16.580Z,33792.00
2022-10-23T09:15:16.589Z,32960.00
2022-10-23T09:16:16.615Z,32672.00
2022-10-23T09:17:16.624Z,31680.00
2022-10-23T09:34:49.068Z,13892.00
2022-10-23T09:35:49.056Z,13956.00
2022-10-23T09:36:49.149Z,13896.00
2022-10-23T09:37:49.101Z,13656.00
2022-10-23T09:38:49.102Z,14104.00
2022-10-23T09:39:49.105Z,14828.00
2022-10-23T09:40:49.118Z,14068.00
2022-10-23T09:41:49.120Z,13868.00
2022-10-23T09:42:49.131Z,14064.00
2022-10-23T09:43:49.146Z,14208.00
2022-10-23T09:44:49.161Z,14156.00
2022-10-23T09:45:49.187Z,14412.00
2022-10-23T09:46:52.217Z,14316.00
2022-10-23T09:47:49.205Z,14608.00
2022-10-23T09:48:49.200Z,14284.00
2022-10-23T09:49:49.203Z,14488.00
2022-10-23T09:50:49.236Z,14164.00
2022-10-23T09:51:49.232Z,14168.00
2022-10-23T09:52:49.238Z,13820.00
2022-10-23T09:53:49.253Z,14088.00
2022-10-23T09:54:49.263Z,14336.00
2022-10-23T09:55:49.271Z,14928.00
2022-10-23T09:56:49.284Z,15840.00
2022-10-23T09:57:49.288Z,15488.00
2022-10-23T09:58:49.304Z,15456.00
2022-10-23T09:59:49.306Z,15904.00
2022-10-23T10:00:52.239Z,15456.00
2022-10-23T10:01:49.553Z,15036.00
2022-10-23T10:02:49.349Z,15456.00
2022-10-23T10:03:49.361Z,15520.00
2022-10-23T10:04:49.366Z,16032.00
2022-10-23T10:05:49.411Z,16768.00
2022-10-23T10:06:49.406Z,17536.00
2022-10-23T10:07:49.387Z,18400.00
2022-10-23T10:08:49.458Z,19616.00
2022-10-23T10:09:49.418Z,20896.00
2022-10-23T10:10:49.428Z,21888.00
2022-10-23T10:11:49.430Z,22816.00
2022-10-23T10:12:49.439Z,23616.00
2022-10-23T10:13:49.455Z,24960.00
2022-10-23T10:14:49.463Z,27488.00
2022-10-23T10:16:32.104Z,28928.00
2022-10-23T10:17:32.028Z,29120.00
2022-10-23T10:18:32.044Z,29536.00
2022-10-23T10:19:32.069Z,29504.00
2022-10-23T11:10:07.591Z,14700.00
2022-10-23T11:11:07.581Z,14620.00
2022-10-23T11:12:07.590Z,15152.00
2022-10-23T11:13:07.609Z,15256.00
2022-10-23T11:14:07.621Z,15092.00
2022-10-23T11:15:07.625Z,15032.00
2022-10-23T11:16:07.644Z,14640.00
2022-10-23T11:17:07.677Z,14196.00
2022-10-23T11:18:07.682Z,13800.00
2022-10-23T11:19:11.396Z,13232.00
2022-10-23T11:20:07.693Z,12680.00
2022-10-23T11:21:07.690Z,12124.00
2022-10-23T11:22:07.702Z,11424.00
2022-10-23T11:23:07.721Z,10720.00
2022-10-23T11:24:07.727Z,10100.00
2022-10-23T11:25:07.746Z,9628.00
2022-10-23T11:26:07.772Z,9252.00
2022-10-23T11:27:07.765Z,8968.00
2022-10-23T11:28:10.536Z,8792.00
2022-10-23T11:29:07.778Z,8772.00
2022-10-23T11:30:07.788Z,8928.00
2022-10-23T11:31:11.680Z,9272.00
2022-10-23T11:32:07.808Z,9856.00
2022-10-23T11:33:07.818Z,10888.00
2022-10-23T11:34:07.839Z,11600.00
2022-10-23T11:35:07.846Z,12620.00
2022-10-23T11:36:07.850Z,13252.00
2022-10-23T11:37:07.874Z,14540.00
2022-10-23T11:38:07.872Z,14692.00
2022-10-23T11:39:07.894Z,17504.00
2022-10-23T11:40:07.892Z,18944.00
2022-10-23T11:41:07.915Z,21408.00
2022-10-23T11:42:07.935Z,20896.00
2022-10-23T11:43:07.935Z,21504.00
2022-10-23T11:44:07.935Z,19776.00
2022-10-23T11:45:07.946Z,18720.00
2022-10-23T11:46:07.966Z,18976.00
2022-10-23T11:47:07.976Z,18496.00
2022-10-23T11:48:07.979Z,17888.00
2022-10-23T11:49:08.033Z,20864.00
2022-10-23T11:50:08.000Z,23328.00
2022-10-23T11:51:08.103Z,29504.00
2022-10-23T11:52:08.023Z,30432.00
2022-10-23T11:53:16.363Z,26944.00
2022-10-23T11:55:25.669Z,23104.00
2022-10-23T11:56:25.672Z,22848.00
2022-10-23T12:14:15.000Z,35104.00
2022-10-23T12:15:14.997Z,35616.00
2022-10-23T12:16:15.212Z,32704.00
2022-10-23T12:26:44.190Z,18944.00
2022-10-23T12:27:44.555Z,19040.00
2022-10-23T12:28:44.207Z,19904.00
2022-10-23T12:29:44.240Z,19424.00
2022-10-23T12:30:44.335Z,18880.00
2022-10-23T12:31:47.069Z,17056.00
2022-10-23T12:32:44.653Z,15968.00
2022-10-23T12:33:44.270Z,15424.00
2022-10-23T12:34:44.283Z,14624.00
2022-10-23T12:35:44.304Z,14364.00
2022-10-23T12:36:44.307Z,14416.00
2022-10-23T12:37:44.329Z,14504.00
2022-10-23T12:38:44.332Z,14420.00
2022-10-23T12:39:44.353Z,14440.00
2022-10-23T12:40:44.358Z,14204.00
2022-10-23T12:41:44.377Z,14132.00
2022-10-23T12:42:44.698Z,14044.00
2022-10-23T12:43:44.409Z,13820.00
2022-10-23T12:44:44.413Z,13580.00
2022-10-23T12:45:44.440Z,13620.00
2022-10-23T12:46:44.438Z,13476.00
2022-10-23T12:47:44.453Z,13524.00
2022-10-23T12:48:44.465Z,13340.00
2022-10-23T12:49:44.477Z,13220.00
2022-10-23T12:50:44.483Z,13184.00
2022-10-23T12:51:44.499Z,13104.00
2022-10-23T12:52:44.745Z,13120.00
2022-10-23T12:53:44.521Z,13320.00
2022-10-23T12:54:44.536Z,13440.00
2022-10-23T12:55:44.540Z,13736.00
2022-10-23T12:56:44.554Z,13804.00
2022-10-23T12:57:44.947Z,13764.00
2022-10-23T12:58:44.583Z,13992.00
2022-10-23T12:59:44.594Z,13784.00
2022-10-23T13:00:44.600Z,13308.00
2022-10-23T13:01:47.973Z,12892.00
2022-10-23T13:02:44.708Z,12920.00
2022-10-23T13:03:44.635Z,13052.00
2022-10-23T13:04:44.645Z,12576.00
2022-10-23T13:05:44.665Z,12680.00
2022-10-23T13:06:44.668Z,13384.00
2022-10-23T13:07:44.843Z,13512.00
2022-10-23T13:08:44.699Z,13492.00
2022-10-23T13:09:44.704Z,13576.00
2022-10-23T13:10:44.714Z,12972.00
2022-10-23T13:11:44.732Z,12556.00
2022-10-23T13:12:44.754Z,12844.00
2022-10-23T13:13:44.749Z,12748.00
2022-10-23T13:14:44.768Z,14252.00
2022-10-23T13:15:44.773Z,16512.00
2022-10-23T13:16:44.792Z,16704.00
2022-10-23T13:17:45.187Z,16288.00
2022-10-23T13:18:44.807Z,16960.00
2022-10-23T13:19:44.818Z,17696.00
2022-10-23T13:20:44.834Z,16288.00
2022-10-23T13:21:44.849Z,15616.00
2022-10-23T13:22:45.248Z,14632.00
2022-10-23T13:23:44.873Z,15168.00
2022-10-23T13:24:44.884Z,13800.00
2022-10-23T13:25:44.893Z,13768.00
2022-10-23T13:26:44.916Z,13516.00
2022-10-23T13:27:45.212Z,12732.00
2022-10-23T13:28:44.929Z,12524.00
2022-10-23T13:29:44.945Z,12096.00
2022-10-23T13:30:44.953Z,11944.00
2022-10-23T13:31:44.965Z,11364.00
2022-10-23T13:32:45.291Z,10852.00
2022-10-23T13:33:44.999Z,10544.00
2022-10-23T13:34:53.724Z,10244.00
2022-10-23T13:35:45.006Z,9736.00
2022-10-23T13:36:45.020Z,9316.00
2022-10-23T13:38:45.050Z,8820.00
2022-10-23T13:39:45.049Z,8604.00
2022-10-23T13:40:45.069Z,8372.00
2022-10-23T13:41:45.072Z,8128.00
2022-10-23T13:42:45.537Z,7864.00
2022-10-23T13:43:45.095Z,7616.00
2022-10-23T13:44:45.112Z,7404.00
2022-10-23T13:45:45.117Z,7192.00
2022-10-23T13:46:45.127Z,6976.00
2022-10-23T13:47:45.591Z,6804.00
2022-10-23T13:48:45.153Z,6664.00
2022-10-23T13:49:45.187Z,6540.00
2022-10-23T13:50:45.181Z,6464.00
2022-10-23T13:51:45.183Z,6420.00
2022-10-23T13:52:45.203Z,6380.00
2022-10-23T13:53:45.212Z,6328.00
2022-10-23T13:54:45.217Z,6284.00
2022-10-23T13:55:45.233Z,6260.00
2022-10-23T13:56:45.240Z,6236.00
2022-10-23T13:57:45.584Z,6204.00
2022-10-23T13:58:45.259Z,6172.00
2022-10-23T13:59:45.280Z,6108.00
2022-10-23T14:00:45.289Z,6008.00
2022-10-23T14:01:45.406Z,5896.00
2022-10-23T14:02:45.395Z,5780.00
2022-10-23T14:03:45.321Z,5636.00
2022-10-23T14:04:45.323Z,5492.00
2022-10-23T14:05:45.361Z,5340.00
2022-10-23T14:06:45.352Z,5192.00
2022-10-23T14:07:45.570Z,5048.00
2022-10-23T14:08:45.372Z,4936.00
2022-10-23T14:09:45.373Z,4824.00
2022-10-23T14:10:45.392Z,4708.00
2022-10-23T14:11:45.403Z,4604.00
2022-10-23T14:12:45.834Z,4492.00
2022-10-23T14:13:45.415Z,4380.00
2022-10-23T14:14:45.434Z,4276.00
2022-10-23T14:15:45.435Z,4188.00
2022-10-23T14:16:45.454Z,4136.00
2022-10-23T14:17:45.480Z,4100.00
2022-10-23T14:18:45.467Z,4076.00
2022-10-23T14:19:45.483Z,4048.00
2022-10-23T14:20:45.487Z,4016.00
2022-10-23T14:21:45.518Z,3968.00
2022-10-23T14:22:45.946Z,3896.00
2022-10-23T14:23:45.527Z,3804.00
2022-10-23T14:24:45.528Z,3716.00
2022-10-23T14:25:45.544Z,3648.00
2022-10-23T14:26:45.547Z,3616.00
2022-10-23T14:27:45.603Z,3624.00
2022-10-23T14:28:45.569Z,3636.00
2022-10-23T14:29:45.585Z,3668.00
2022-10-23T14:30:45.586Z,3684.00
2022-10-23T14:31:45.598Z,3688.00
2022-10-23T14:32:45.998Z,3668.00
2022-10-23T14:33:45.624Z,3612.00
2022-10-23T14:34:45.627Z,3532.00
2022-10-23T14:35:45.643Z,3452.00
2022-10-23T14:36:49.712Z,3380.00
2022-10-23T14:37:46.074Z,3316.00
2022-10-23T14:38:45.673Z,3260.00
2022-10-23T14:39:49.791Z,3220.00
2022-10-23T14:40:45.685Z,3188.00
2022-10-23T14:41:45.700Z,3168.00
2022-10-23T14:42:45.939Z,3156.00
2022-10-23T14:43:45.721Z,3140.00
2022-10-23T14:44:45.733Z,3120.00
2022-10-23T14:45:45.732Z,3092.00
2022-10-23T14:46:45.750Z,3064.00
2022-10-23T14:47:46.101Z,3040.00
2022-10-23T14:48:47.192Z,3004.00